Saturday, November 18, 2017, 12:09 PM GMT
Back to Local

CWST, La Pocatiere

Location: , , Canada Lat: 47.35
Local Time: 12:09 PM GMT (12:09 GMT) Lon: -70.033
Time Zone: GMT Elev: 101 ft

Show me the last for .
Show Decoded

2017-11-18 11:00 METAR CWST 181100Z AUTO 22013G18KT M07/M10 RMK AO1 PK WND 21018/1055 SLP126
                 T10701103 51003 =
2017-11-18 10:00 METAR CWST 181000Z AUTO 22011KT M07/M10 RMK AO1 SLP124 T10661101 50006 =
2017-11-18 09:00 METAR CWST 180900Z AUTO 22011G16KT M07/M10 RMK AO1 SLP127 T10651100 53007 =
2017-11-18 08:00 METAR CWST 180800Z AUTO 23008KT M07/M10 RMK AO1 SLP123 T10651097 53005 =
2017-11-18 07:00 METAR CWST 180700Z AUTO 23006KT M07/M10 RMK AO1 SLP118 T10711098 56003 =
2017-11-18 06:00 METAR CWST 180600Z AUTO 23006KT M07/M10 RMK AO1 SLP120 T10711097 55001 =
2017-11-18 05:00 METAR CWST 180500Z AUTO 12003KT M07/M10 RMK AO1 SLP118 T10731104 58001 =
2017-11-18 04:00 METAR CWST 180400Z AUTO 10003KT M06/M10 RMK AO1 SLP121 T10551102 51003 =
2017-11-18 03:00 METAR CWST 180300Z AUTO 08002KT M05/M10 RMK AO1 SLP121 T10451099 51006 =
2017-11-18 02:00 METAR CWST 180200Z AUTO 30008KT M04/M10 RMK AO1 SLP119 T10391103 51010 =
2017-11-18 01:00 METAR CWST 180100Z AUTO 29011KT M03/M10 RMK AO1 SLP118 T10341098 52012 =
2017-11-18 00:00 METAR CWST 180000Z AUTO 27008KT M03/M09 RMK AO1 SLP115 T10341092 52015 =
2017-11-17 23:00 METAR CWST 172300Z AUTO 30009KT M03/M09 RMK AO1 SOG 15 1019 SLP109 T10261087 =
2017-11-17 22:00 METAR CWST 172200Z AUTO 31010G17KT M03/M09 RMK AO1 SOG 148 1025 PK WND
                 30017/2150 SLP106 T10271088 =
2017-11-17 21:00 METAR CWST 172100Z AUTO 33007KT M02/M09 RMK AO1 SLP100 T10201087 53022 =
2017-11-17 20:00 METAR CWST 172000Z AUTO 33009G17KT M01/M08 RMK AO1 PK WND 31017/1930 SLP090
                 T10091081 53011 =
2017-11-17 19:00 METAR CWST 171900Z AUTO 30011G17KT M00/M07 RMK AO1 PK WND 33019/1823 SLP081
                 T10031073 53002 =
2017-11-17 18:00 METAR CWST 171800Z AUTO 32012G19KT M01/M07 RMK AO1 PK WND 33020/1710 SLP078
                 T10071073 50001 =
2017-11-17 17:00 METAR CWST 171700Z AUTO 34013G19KT M01/M07 RMK AO1 PK WND 33019/1659 SLP079
                 T10051069 51006 =
2017-11-17 16:00 METAR CWST 171600Z AUTO 32009G21KT M00/M06 RMK AO1 PK WND 34021/1553 SLP079
                 T10021059 51012 =
2017-11-17 15:00 METAR CWST 171500Z AUTO 33008KT M00/M05 RMK AO1 SLP077 T10021052 51019 =
2017-11-17 14:00 METAR CWST 171400Z AUTO 33007KT M00/M04 RMK AO1 SOG 02 1026 SLP073 T10011039 =
2017-11-17 13:00 METAR CWST 171300Z AUTO 34011G18KT 01/M03 RMK AO1 SOG 03 3027 PK WND 34020/1226
                 SLP067 T00081031 =

Support USWX by starting your Amazon purchase here.